sensor_id;sensor_type;location;lat;lon;timestamp;pressure;altitude;pressure_sealevel;temperature;humidity
46394;BME280;32099;53.588;10.176;2022-09-27T00:01:01;98949.59;;;11.46;88.58
46394;BME280;32099;53.588;10.176;2022-09-27T00:03:32;98949.00;;;11.44;88.07
46394;BME280;32099;53.588;10.176;2022-09-27T00:06:02;98944.16;;;11.46;88.28
46394;BME280;32099;53.588;10.176;2022-09-27T00:08:31;98944.25;;;11.51;88.65
46394;BME280;32099;53.588;10.176;2022-09-27T00:10:58;98944.50;;;11.50;88.41
46394;BME280;32099;53.588;10.176;2022-09-27T00:13:24;98941.53;;;11.51;88.19
46394;BME280;32099;53.588;10.176;2022-09-27T00:15:54;98942.13;;;11.53;87.94
46394;BME280;32099;53.588;10.176;2022-09-27T00:18:24;98938.59;;;11.53;88.01
46394;BME280;32099;53.588;10.176;2022-09-27T00:20:49;98946.78;;;11.53;87.90
46394;BME280;32099;53.588;10.176;2022-09-27T00:23:15;98932.28;;;11.52;88.27
46394;BME280;32099;53.588;10.176;2022-09-27T00:25:40;98934.78;;;11.54;88.32
46394;BME280;32099;53.588;10.176;2022-09-27T00:28:05;98930.16;;;11.54;88.71
46394;BME280;32099;53.588;10.176;2022-09-27T00:30:31;98928.03;;;11.56;88.46
46394;BME280;32099;53.588;10.176;2022-09-27T00:32:56;98925.53;;;11.55;89.00
46394;BME280;32099;53.588;10.176;2022-09-27T00:35:21;98912.72;;;11.55;88.56
46394;BME280;32099;53.588;10.176;2022-09-27T00:37:47;98921.34;;;11.52;88.47
46394;BME280;32099;53.588;10.176;2022-09-27T00:40:13;98923.28;;;11.52;88.03
46394;BME280;32099;53.588;10.176;2022-09-27T00:42:39;98920.78;;;11.50;88.57
46394;BME280;32099;53.588;10.176;2022-09-27T00:45:08;98920.78;;;11.50;88.37
46394;BME280;32099;53.588;10.176;2022-09-27T00:47:59;98918.53;;;11.47;88.45
46394;BME280;32099;53.588;10.176;2022-09-27T00:50:31;98911.84;;;11.43;88.62
46394;BME280;32099;53.588;10.176;2022-09-27T00:53:17;98908.53;;;11.41;88.55
46394;BME280;32099;53.588;10.176;2022-09-27T00:55:48;98913.53;;;11.44;88.59
46394;BME280;32099;53.588;10.176;2022-09-27T00:58:19;98907.69;;;11.40;88.70
46394;BME280;32099;53.588;10.176;2022-09-27T01:00:50;98902.69;;;11.37;88.47
46394;BME280;32099;53.588;10.176;2022-09-27T01:03:22;98904.13;;;11.40;88.75
46394;BME280;32099;53.588;10.176;2022-09-27T01:05:53;98902.25;;;11.40;88.75
46394;BME280;32099;53.588;10.176;2022-09-27T01:08:19;98903.66;;;11.43;88.77
46394;BME280;32099;53.588;10.176;2022-09-27T01:10:58;98900.94;;;11.43;88.36
46394;BME280;32099;53.588;10.176;2022-09-27T01:13:41;98898.44;;;11.41;88.72
46394;BME280;32099;53.588;10.176;2022-09-27T01:17:08;98889.41;;;11.41;88.80
46394;BME280;32099;53.588;10.176;2022-09-27T01:19:43;98892.03;;;11.36;88.78
46394;BME280;32099;53.588;10.176;2022-09-27T01:22:41;98882.06;;;11.41;88.57
46394;BME280;32099;53.588;10.176;2022-09-27T01:25:26;98883.25;;;11.46;88.38
46394;BME280;32099;53.588;10.176;2022-09-27T01:31:02;98875.22;;;11.51;87.87
46394;BME280;32099;53.588;10.176;2022-09-27T01:39:19;98873.44;;;11.56;87.86
46394;BME280;32099;53.588;10.176;2022-09-27T01:42:04;98860.25;;;11.53;87.75
46394;BME280;32099;53.588;10.176;2022-09-27T01:44:46;98872.13;;;11.59;87.60
46394;BME280;32099;53.588;10.176;2022-09-27T01:47:21;98869.19;;;11.61;87.30
46394;BME280;32099;53.588;10.176;2022-09-27T01:49:53;98862.06;;;11.60;88.13
46394;BME280;32099;53.588;10.176;2022-09-27T01:52:26;98856.34;;;11.61;88.15
46394;BME280;32099;53.588;10.176;2022-09-27T01:54:59;98854.94;;;11.58;88.26
46394;BME280;32099;53.588;10.176;2022-09-27T01:57:31;98856.00;;;11.57;88.39
46394;BME280;32099;53.588;10.176;2022-09-27T02:00:01;98856.91;;;11.51;89.00
46394;BME280;32099;53.588;10.176;2022-09-27T02:02:31;98846.25;;;11.50;88.49
46394;BME280;32099;53.588;10.176;2022-09-27T02:05:01;98846.00;;;11.51;88.60
46394;BME280;32099;53.588;10.176;2022-09-27T02:07:31;98849.94;;;11.55;88.54
46394;BME280;32099;53.588;10.176;2022-09-27T02:10:05;98846.28;;;11.62;88.37
46394;BME280;32099;53.588;10.176;2022-09-27T02:12:39;98844.97;;;11.64;87.83
46394;BME280;32099;53.588;10.176;2022-09-27T02:15:22;98850.44;;;11.64;87.67
46394;BME280;32099;53.588;10.176;2022-09-27T02:17:53;98845.31;;;11.68;87.60
46394;BME280;32099;53.588;10.176;2022-09-27T02:20:25;98842.00;;;11.66;87.77
46394;BME280;32099;53.588;10.176;2022-09-27T02:22:54;98840.09;;;11.66;87.36
46394;BME280;32099;53.588;10.176;2022-09-27T02:25:46;98834.41;;;11.68;87.52
46394;BME280;32099;53.588;10.176;2022-09-27T02:28:29;98838.19;;;11.67;87.55
46394;BME280;32099;53.588;10.176;2022-09-27T02:30:58;98837.84;;;11.63;87.86
46394;BME280;32099;53.588;10.176;2022-09-27T02:33:28;98834.88;;;11.65;87.97
46394;BME280;32099;53.588;10.176;2022-09-27T02:35:59;98827.75;;;11.64;87.87
46394;BME280;32099;53.588;10.176;2022-09-27T02:38:24;98837.13;;;11.68;87.99
46394;BME280;32099;53.588;10.176;2022-09-27T02:40:49;98839.03;;;11.67;87.64
46394;BME280;32099;53.588;10.176;2022-09-27T02:43:15;98834.16;;;11.69;87.75
46394;BME280;32099;53.588;10.176;2022-09-27T02:48:30;98830.34;;;11.70;87.53
46394;BME280;32099;53.588;10.176;2022-09-27T02:51:26;98828.34;;;11.66;87.44
46394;BME280;32099;53.588;10.176;2022-09-27T02:57:39;98826.56;;;11.60;88.09
46394;BME280;32099;53.588;10.176;2022-09-27T03:00:23;98821.00;;;11.66;87.87
46394;BME280;32099;53.588;10.176;2022-09-27T03:02:59;98821.34;;;11.70;87.74
46394;BME280;32099;53.588;10.176;2022-09-27T03:05:34;98815.63;;;11.71;87.55
46394;BME280;32099;53.588;10.176;2022-09-27T03:08:05;98813.25;;;11.75;87.20
46394;BME280;32099;53.588;10.176;2022-09-27T03:10:31;98810.31;;;11.77;87.25
46394;BME280;32099;53.588;10.176;2022-09-27T03:12:56;98813.03;;;11.77;87.25
46394;BME280;32099;53.588;10.176;2022-09-27T03:15:24;98805.66;;;11.77;87.35
46394;BME280;32099;53.588;10.176;2022-09-27T03:17:50;98798.66;;;11.81;87.65
46394;BME280;32099;53.588;10.176;2022-09-27T03:20:15;98808.75;;;11.81;86.82
46394;BME280;32099;53.588;10.176;2022-09-27T03:22:41;98807.94;;;11.80;87.07
46394;BME280;32099;53.588;10.176;2022-09-27T03:25:07;98800.34;;;11.82;87.13
46394;BME280;32099;53.588;10.176;2022-09-27T03:27:33;98795.22;;;11.86;87.01
46394;BME280;32099;53.588;10.176;2022-09-27T03:29:58;98800.44;;;11.87;86.63
46394;BME280;32099;53.588;10.176;2022-09-27T03:32:24;98794.38;;;11.85;86.82
46394;BME280;32099;53.588;10.176;2022-09-27T03:34:50;98791.63;;;11.85;86.71
46394;BME280;32099;53.588;10.176;2022-09-27T03:37:15;98796.75;;;11.82;86.95
46394;BME280;32099;53.588;10.176;2022-09-27T03:39:40;98787.50;;;11.83;86.83
46394;BME280;32099;53.588;10.176;2022-09-27T03:42:06;98790.56;;;11.86;86.82
46394;BME280;32099;53.588;10.176;2022-09-27T03:44:31;98786.69;;;11.82;86.49
46394;BME280;32099;53.588;10.176;2022-09-27T03:46:57;98779.56;;;11.81;86.91
46394;BME280;32099;53.588;10.176;2022-09-27T03:49:22;98780.72;;;11.85;86.76
46394;BME280;32099;53.588;10.176;2022-09-27T03:51:48;98781.56;;;11.86;86.59
46394;BME280;32099;53.588;10.176;2022-09-27T03:54:13;98777.88;;;11.80;86.39
46394;BME280;32099;53.588;10.176;2022-09-27T03:56:38;98777.44;;;11.83;86.52
46394;BME280;32099;53.588;10.176;2022-09-27T03:59:03;98779.91;;;11.85;86.74
46394;BME280;32099;53.588;10.176;2022-09-27T04:01:29;98783.69;;;11.84;86.45
46394;BME280;32099;53.588;10.176;2022-09-27T04:03:54;98777.16;;;11.85;86.73
46394;BME280;32099;53.588;10.176;2022-09-27T04:06:19;98780.97;;;11.84;86.88
46394;BME280;32099;53.588;10.176;2022-09-27T04:08:45;98768.97;;;11.85;86.72
46394;BME280;32099;53.588;10.176;2022-09-27T04:11:11;98769.44;;;11.82;86.93
46394;BME280;32099;53.588;10.176;2022-09-27T04:13:36;98765.91;;;11.81;86.73
46394;BME280;32099;53.588;10.176;2022-09-27T04:16:02;98769.22;;;11.83;86.89
46394;BME280;32099;53.588;10.176;2022-09-27T04:18:28;98772.31;;;11.87;86.74
46394;BME280;32099;53.588;10.176;2022-09-27T04:20:53;98772.06;;;11.88;86.71
46394;BME280;32099;53.588;10.176;2022-09-27T04:23:19;98774.19;;;11.86;86.50
46394;BME280;32099;53.588;10.176;2022-09-27T04:25:44;98771.25;;;11.88;86.64
46394;BME280;32099;53.588;10.176;2022-09-27T04:28:10;98773.25;;;11.93;86.40
46394;BME280;32099;53.588;10.176;2022-09-27T04:30:36;98765.88;;;11.93;86.55
46394;BME280;32099;53.588;10.176;2022-09-27T04:33:02;98770.50;;;11.93;86.53
46394;BME280;32099;53.588;10.176;2022-09-27T04:35:27;98768.13;;;11.96;86.37
46394;BME280;32099;53.588;10.176;2022-09-27T04:38:11;98768.50;;;12.00;86.12
46394;BME280;32099;53.588;10.176;2022-09-27T04:40:38;98771.22;;;12.00;85.79
46394;BME280;32099;53.588;10.176;2022-09-27T04:43:03;98767.31;;;11.96;86.53
46394;BME280;32099;53.588;10.176;2022-09-27T04:45:28;98770.25;;;11.94;86.24
46394;BME280;32099;53.588;10.176;2022-09-27T04:47:54;98772.06;;;11.88;86.49
46394;BME280;32099;53.588;10.176;2022-09-27T04:50:19;98764.34;;;11.85;86.81
46394;BME280;32099;53.588;10.176;2022-09-27T04:52:51;98764.72;;;11.89;86.92
46394;BME280;32099;53.588;10.176;2022-09-27T04:55:17;98761.47;;;11.92;86.45
46394;BME280;32099;53.588;10.176;2022-09-27T04:57:44;98761.47;;;11.92;86.49
46394;BME280;32099;53.588;10.176;2022-09-27T05:00:09;98765.06;;;11.93;86.73
46394;BME280;32099;53.588;10.176;2022-09-27T05:02:35;98756.88;;;11.93;86.54
46394;BME280;32099;53.588;10.176;2022-09-27T05:05:00;98764.22;;;11.92;86.43
46394;BME280;32099;53.588;10.176;2022-09-27T05:07:26;98765.66;;;11.95;86.40
46394;BME280;32099;53.588;10.176;2022-09-27T05:09:52;98768.94;;;11.97;86.40
46394;BME280;32099;53.588;10.176;2022-09-27T05:12:17;98761.38;;;11.99;86.40
46394;BME280;32099;53.588;10.176;2022-09-27T05:14:43;98763.88;;;12.00;86.28
46394;BME280;32099;53.588;10.176;2022-09-27T05:17:09;98764.22;;;12.04;86.32
46394;BME280;32099;53.588;10.176;2022-09-27T05:19:34;98765.38;;;12.08;86.22
46394;BME280;32099;53.588;10.176;2022-09-27T05:22:03;98761.59;;;12.09;86.08
46394;BME280;32099;53.588;10.176;2022-09-27T05:24:29;98767.06;;;12.09;86.16
46394;BME280;32099;53.588;10.176;2022-09-27T05:26:57;98760.78;;;12.09;86.19
46394;BME280;32099;53.588;10.176;2022-09-27T05:29:23;98762.44;;;12.10;85.95
46394;BME280;32099;53.588;10.176;2022-09-27T05:31:48;98768.97;;;12.09;87.16
46394;BME280;32099;53.588;10.176;2022-09-27T05:34:13;98766.50;;;12.07;87.91
46394;BME280;32099;53.588;10.176;2022-09-27T05:36:39;98771.34;;;12.05;88.04
46394;BME280;32099;53.588;10.176;2022-09-27T05:39:04;98769.69;;;12.04;87.94
46394;BME280;32099;53.588;10.176;2022-09-27T05:41:31;98759.50;;;11.99;87.58
46394;BME280;32099;53.588;10.176;2022-09-27T05:43:56;98769.19;;;11.95;87.77
46394;BME280;32099;53.588;10.176;2022-09-27T05:46:22;98776.44;;;11.89;87.15
46394;BME280;32099;53.588;10.176;2022-09-27T05:48:47;98763.66;;;11.90;87.17
46394;BME280;32099;53.588;10.176;2022-09-27T05:51:12;98771.59;;;11.92;87.19
46394;BME280;32099;53.588;10.176;2022-09-27T05:53:38;98769.44;;;11.94;87.17
46394;BME280;32099;53.588;10.176;2022-09-27T05:56:03;98775.63;;;12.01;86.74
46394;BME280;32099;53.588;10.176;2022-09-27T05:58:29;98771.56;;;12.03;86.95
46394;BME280;32099;53.588;10.176;2022-09-27T06:00:54;98774.91;;;12.06;86.81
46394;BME280;32099;53.588;10.176;2022-09-27T06:03:19;98777.88;;;12.04;86.66
46394;BME280;32099;53.588;10.176;2022-09-27T06:05:45;98782.28;;;12.05;86.50
46394;BME280;32099;53.588;10.176;2022-09-27T06:08:11;98783.44;;;12.09;86.51
46394;BME280;32099;53.588;10.176;2022-09-27T06:10:37;98779.16;;;12.13;86.37
46394;BME280;32099;53.588;10.176;2022-09-27T06:13:05;98779.97;;;12.14;86.52
46394;BME280;32099;53.588;10.176;2022-09-27T06:15:33;98782.72;;;12.14;86.54
46394;BME280;32099;53.588;10.176;2022-09-27T06:18:02;98785.22;;;12.15;86.54
46394;BME280;32099;53.588;10.176;2022-09-27T06:20:30;98786.38;;;12.19;86.44
46394;BME280;32099;53.588;10.176;2022-09-27T06:23:02;98782.03;;;12.18;86.40
46394;BME280;32099;53.588;10.176;2022-09-27T06:25:28;98782.03;;;12.18;86.47
46394;BME280;32099;53.588;10.176;2022-09-27T06:27:54;98782.84;;;12.19;86.44
46394;BME280;32099;53.588;10.176;2022-09-27T06:30:19;98782.59;;;12.21;86.33
46394;BME280;32099;53.588;10.176;2022-09-27T06:32:44;98778.44;;;12.18;86.72
46394;BME280;32099;53.588;10.176;2022-09-27T06:35:09;98770.16;;;12.13;86.44
46394;BME280;32099;53.588;10.176;2022-09-27T06:37:35;98777.84;;;12.16;86.74
46394;BME280;32099;53.588;10.176;2022-09-27T06:40:00;98784.97;;;12.17;86.83
46394;BME280;32099;53.588;10.176;2022-09-27T06:42:26;98785.44;;;12.14;87.33
46394;BME280;32099;53.588;10.176;2022-09-27T06:44:51;98779.63;;;12.10;87.15
46394;BME280;32099;53.588;10.176;2022-09-27T06:47:18;98782.63;;;12.09;87.19
46394;BME280;32099;53.588;10.176;2022-09-27T06:49:43;98785.69;;;12.12;87.44
46394;BME280;32099;53.588;10.176;2022-09-27T06:52:08;98780.50;;;12.11;87.95
46394;BME280;32099;53.588;10.176;2022-09-27T06:54:34;98783.09;;;12.06;88.04
46394;BME280;32099;53.588;10.176;2022-09-27T06:56:59;98787.50;;;11.95;87.87
46394;BME280;32099;53.588;10.176;2022-09-27T06:59:25;98791.50;;;11.92;88.07
46394;BME280;32099;53.588;10.176;2022-09-27T07:02:08;98795.81;;;11.88;88.85
46394;BME280;32099;53.588;10.176;2022-09-27T07:04:34;98791.16;;;11.88;88.73
46394;BME280;32099;53.588;10.176;2022-09-27T07:06:59;98782.16;;;11.88;88.98
46394;BME280;32099;53.588;10.176;2022-09-27T07:09:25;98794.16;;;11.87;88.76
46394;BME280;32099;53.588;10.176;2022-09-27T07:11:50;98800.78;;;11.91;88.77
46394;BME280;32099;53.588;10.176;2022-09-27T07:14:15;98797.81;;;11.93;88.79
46394;BME280;32099;53.588;10.176;2022-09-27T07:16:41;98801.03;;;11.89;89.58
46394;BME280;32099;53.588;10.176;2022-09-27T07:19:07;98806.13;;;11.86;88.77
46394;BME280;32099;53.588;10.176;2022-09-27T07:21:32;98805.53;;;11.84;89.11
46394;BME280;32099;53.588;10.176;2022-09-27T07:23:58;98809.69;;;11.86;89.07
46394;BME280;32099;53.588;10.176;2022-09-27T07:26:23;98808.28;;;11.84;90.17
46394;BME280;32099;53.588;10.176;2022-09-27T07:28:48;98799.47;;;11.82;89.18
46394;BME280;32099;53.588;10.176;2022-09-27T07:31:14;98817.19;;;11.79;88.85
46394;BME280;32099;53.588;10.176;2022-09-27T07:33:39;98813.84;;;11.77;88.96
46394;BME280;32099;53.588;10.176;2022-09-27T07:36:08;98818.13;;;11.85;88.94
46394;BME280;32099;53.588;10.176;2022-09-27T07:38:34;98819.69;;;11.93;89.16
46394;BME280;32099;53.588;10.176;2022-09-27T07:41:10;98823.00;;;11.95;89.14
46394;BME280;32099;53.588;10.176;2022-09-27T07:43:38;98825.59;;;11.89;88.64
46394;BME280;32099;53.588;10.176;2022-09-27T07:46:03;98840.94;;;11.91;88.95
46394;BME280;32099;53.588;10.176;2022-09-27T07:48:29;98831.66;;;11.92;88.89
46394;BME280;32099;53.588;10.176;2022-09-27T07:50:54;98830.00;;;11.91;88.41
46394;BME280;32099;53.588;10.176;2022-09-27T07:53:19;98831.19;;;11.95;88.66
46394;BME280;32099;53.588;10.176;2022-09-27T07:55:48;98836.66;;;11.95;87.45
46394;BME280;32099;53.588;10.176;2022-09-27T07:58:16;98837.84;;;11.99;87.55
46394;BME280;32099;53.588;10.176;2022-09-27T08:00:42;98840.94;;;12.02;87.85
46394;BME280;32099;53.588;10.176;2022-09-27T08:03:12;98842.38;;;12.05;87.44
46394;BME280;32099;53.588;10.176;2022-09-27T08:05:40;98845.09;;;12.05;87.53
46394;BME280;32099;53.588;10.176;2022-09-27T08:08:09;98846.78;;;12.06;87.22
46394;BME280;32099;53.588;10.176;2022-09-27T08:10:35;98851.84;;;12.14;87.62
46394;BME280;32099;53.588;10.176;2022-09-27T08:13:01;98852.06;;;12.25;87.29
46394;BME280;32099;53.588;10.176;2022-09-27T08:15:27;98849.22;;;12.31;87.31
46394;BME280;32099;53.588;10.176;2022-09-27T08:17:53;98852.41;;;12.40;87.25
46394;BME280;32099;53.588;10.176;2022-09-27T08:20:19;98849.16;;;12.43;86.30
46394;BME280;32099;53.588;10.176;2022-09-27T08:22:44;98854.16;;;12.46;86.17
46394;BME280;32099;53.588;10.176;2022-09-27T08:25:10;98860.69;;;12.45;86.35
46394;BME280;32099;53.588;10.176;2022-09-27T08:27:35;98863.31;;;12.52;86.44
46394;BME280;32099;53.588;10.176;2022-09-27T08:30:00;98866.63;;;12.54;86.39
46394;BME280;32099;53.588;10.176;2022-09-27T08:32:27;98859.03;;;12.56;85.84
46394;BME280;32099;53.588;10.176;2022-09-27T08:34:54;98875.44;;;12.56;86.05
46394;BME280;32099;53.588;10.176;2022-09-27T08:37:19;98870.28;;;12.60;86.53
46394;BME280;32099;53.588;10.176;2022-09-27T08:39:45;98875.50;;;12.61;86.67
46394;BME280;32099;53.588;10.176;2022-09-27T08:42:20;98874.09;;;12.59;85.91
46394;BME280;32099;53.588;10.176;2022-09-27T08:47:34;98877.50;;;12.66;86.32
46394;BME280;32099;53.588;10.176;2022-09-27T08:52:53;98890.22;;;12.72;85.58
46394;BME280;32099;53.588;10.176;2022-09-27T08:55:57;98883.44;;;12.75;85.22
46394;BME280;32099;53.588;10.176;2022-09-27T08:58:29;98885.03;;;12.71;84.75
46394;BME280;32099;53.588;10.176;2022-09-27T09:01:01;98887.38;;;12.67;85.48
46394;BME280;32099;53.588;10.176;2022-09-27T09:03:28;98888.97;;;12.63;85.52
46394;BME280;32099;53.588;10.176;2022-09-27T09:06:18;98890.25;;;12.60;86.20
46394;BME280;32099;53.588;10.176;2022-09-27T09:14:26;98896.22;;;12.45;87.22
46394;BME280;32099;53.588;10.176;2022-09-27T09:19:45;98902.56;;;12.46;87.04
46394;BME280;32099;53.588;10.176;2022-09-27T09:25:30;98907.28;;;12.50;86.31
46394;BME280;32099;53.588;10.176;2022-09-27T09:28:19;98903.16;;;12.48;86.45
46394;BME280;32099;53.588;10.176;2022-09-27T09:31:01;98904.09;;;12.42;87.40
46394;BME280;32099;53.588;10.176;2022-09-27T09:33:51;98911.34;;;12.36;87.40
46394;BME280;32099;53.588;10.176;2022-09-27T09:36:28;98916.84;;;12.24;86.96
46394;BME280;32099;53.588;10.176;2022-09-27T09:39:01;98907.44;;;12.20;87.70
46394;BME280;32099;53.588;10.176;2022-09-27T09:41:44;98912.66;;;12.22;88.06
46394;BME280;32099;53.588;10.176;2022-09-27T09:44:43;98916.25;;;12.22;87.92
46394;BME280;32099;53.588;10.176;2022-09-27T09:47:12;98921.81;;;12.15;88.60
46394;BME280;32099;53.588;10.176;2022-09-27T09:49:50;98921.34;;;12.18;88.63
46394;BME280;32099;53.588;10.176;2022-09-27T09:52:35;98924.31;;;12.17;88.09
46394;BME280;32099;53.588;10.176;2022-09-27T09:55:12;98918.16;;;12.10;87.82
46394;BME280;32099;53.588;10.176;2022-09-27T09:57:58;98917.41;;;12.02;88.49
46394;BME280;32099;53.588;10.176;2022-09-27T10:00:38;98915.06;;;12.06;88.97
46394;BME280;32099;53.588;10.176;2022-09-27T10:03:04;98920.28;;;12.08;89.26
46394;BME280;32099;53.588;10.176;2022-09-27T10:05:29;98915.41;;;12.10;88.23
46394;BME280;32099;53.588;10.176;2022-09-27T10:07:56;98925.59;;;12.02;88.32
46394;BME280;32099;53.588;10.176;2022-09-27T10:10:24;98927.97;;;11.99;87.90
46394;BME280;32099;53.588;10.176;2022-09-27T10:12:50;98927.97;;;11.99;88.45
46394;BME280;32099;53.588;10.176;2022-09-27T10:15:16;98929.25;;;11.96;88.24
46394;BME280;32099;53.588;10.176;2022-09-27T10:17:45;98933.59;;;12.04;88.28
46394;BME280;32099;53.588;10.176;2022-09-27T10:23:05;98934.19;;;12.06;88.54
46394;BME280;32099;53.588;10.176;2022-09-27T10:25:53;98935.38;;;11.98;87.79
46394;BME280;32099;53.588;10.176;2022-09-27T10:28:28;98928.19;;;11.97;88.32
46394;BME280;32099;53.588;10.176;2022-09-27T10:31:08;98934.13;;;11.94;88.83
46394;BME280;32099;53.588;10.176;2022-09-27T10:33:36;98930.09;;;11.97;89.14
46394;BME280;32099;53.588;10.176;2022-09-27T10:36:25;98942.09;;;11.96;89.30
46394;BME280;32099;53.588;10.176;2022-09-27T10:38:54;98931.66;;;11.93;89.14
46394;BME280;32099;53.588;10.176;2022-09-27T10:41:23;98946.72;;;11.95;89.46
46394;BME280;32099;53.588;10.176;2022-09-27T10:43:52;98939.59;;;11.94;88.30
46394;BME280;32099;53.588;10.176;2022-09-27T10:49:08;98944.84;;;11.96;89.55
46394;BME280;32099;53.588;10.176;2022-09-27T10:51:39;98946.88;;;12.00;89.27
46394;BME280;32099;53.588;10.176;2022-09-27T10:54:14;98953.06;;;12.08;89.24
46394;BME280;32099;53.588;10.176;2022-09-27T10:56:43;98955.22;;;12.17;88.60
46394;BME280;32099;53.588;10.176;2022-09-27T10:59:13;98953.28;;;12.18;87.59
46394;BME280;32099;53.588;10.176;2022-09-27T11:01:43;98950.22;;;12.14;88.61
46394;BME280;32099;53.588;10.176;2022-09-27T11:04:21;98954.59;;;12.15;88.19
46394;BME280;32099;53.588;10.176;2022-09-27T11:07:04;98959.00;;;12.16;88.03
46394;BME280;32099;53.588;10.176;2022-09-27T11:09:50;98964.81;;;12.20;87.97
46394;BME280;32099;53.588;10.176;2022-09-27T11:12:18;98959.00;;;12.28;88.74
46394;BME280;32099;53.588;10.176;2022-09-27T11:14:54;98960.28;;;12.38;87.88
46394;BME280;32099;53.588;10.176;2022-09-27T11:17:26;98961.38;;;12.48;87.74
46394;BME280;32099;53.588;10.176;2022-09-27T11:20:05;98966.34;;;12.63;88.53
46394;BME280;32099;53.588;10.176;2022-09-27T11:25:19;98962.75;;;12.75;86.23
46394;BME280;32099;53.588;10.176;2022-09-27T11:34:40;98962.03;;;12.79;86.33
46394;BME280;32099;53.588;10.176;2022-09-27T11:39:59;98966.28;;;12.99;85.48
46394;BME280;32099;53.588;10.176;2022-09-27T11:48:03;98966.41;;;12.92;84.80
46394;BME280;32099;53.588;10.176;2022-09-27T11:56:26;98976.63;;;12.85;84.57
46394;BME280;32099;53.588;10.176;2022-09-27T12:01:52;98976.28;;;12.81;84.64
46394;BME280;32099;53.588;10.176;2022-09-27T12:07:23;98982.59;;;12.82;84.19
46394;BME280;32099;53.588;10.176;2022-09-27T12:10:03;98980.22;;;12.86;84.84
46394;BME280;32099;53.588;10.176;2022-09-27T12:12:34;98977.56;;;12.91;83.64
46394;BME280;32099;53.588;10.176;2022-09-27T12:15:05;98982.69;;;12.99;84.64
46394;BME280;32099;53.588;10.176;2022-09-27T12:17:43;98986.06;;;13.18;84.74
46394;BME280;32099;53.588;10.176;2022-09-27T12:20:15;98980.88;;;13.34;84.58
46394;BME280;32099;53.588;10.176;2022-09-27T12:22:55;98981.94;;;13.45;83.67
46394;BME280;32099;53.588;10.176;2022-09-27T12:25:25;98982.97;;;13.55;84.85
46394;BME280;32099;53.588;10.176;2022-09-27T12:28:07;98986.72;;;13.66;83.31
46394;BME280;32099;53.588;10.176;2022-09-27T12:30:39;98975.09;;;13.76;82.76
46394;BME280;32099;53.588;10.176;2022-09-27T12:33:14;98981.94;;;13.91;81.57
46394;BME280;32099;53.588;10.176;2022-09-27T12:35:48;98980.09;;;14.13;83.63
46394;BME280;32099;53.588;10.176;2022-09-27T12:38:22;98976.91;;;14.39;81.49
46394;BME280;32099;53.588;10.176;2022-09-27T12:40:57;98977.50;;;14.41;79.51
46394;BME280;32099;53.588;10.176;2022-09-27T12:43:28;98976.75;;;14.28;80.23
46394;BME280;32099;53.588;10.176;2022-09-27T12:51:19;98984.59;;;14.37;80.28
46394;BME280;32099;53.588;10.176;2022-09-27T12:56:39;98985.00;;;14.11;79.58
46394;BME280;32099;53.588;10.176;2022-09-27T13:02:26;98983.69;;;14.14;81.50
46394;BME280;32099;53.588;10.176;2022-09-27T13:05:07;98978.38;;;14.07;79.98
46394;BME280;32099;53.588;10.176;2022-09-27T13:13:21;98976.38;;;13.68;79.81
46394;BME280;32099;53.588;10.176;2022-09-27T13:15:50;98986.41;;;13.63;81.66
46394;BME280;32099;53.588;10.176;2022-09-27T13:21:07;98992.97;;;13.79;83.26
46394;BME280;32099;53.588;10.176;2022-09-27T13:26:03;99001.25;;;13.84;79.92
46394;BME280;32099;53.588;10.176;2022-09-27T13:29:10;98990.44;;;13.60;79.69
46394;BME280;32099;53.588;10.176;2022-09-27T13:43:03;99022.94;;;13.27;82.33
46394;BME280;32099;53.588;10.176;2022-09-27T13:45:41;99023.75;;;13.28;82.58
46394;BME280;32099;53.588;10.176;2022-09-27T13:48:25;99016.88;;;13.25;81.00
46394;BME280;32099;53.588;10.176;2022-09-27T13:58:16;99027.63;;;13.03;82.19
46394;BME280;32099;53.588;10.176;2022-09-27T14:00:23;99030.81;;;13.00;81.50
46394;BME280;32099;53.588;10.176;2022-09-27T14:02:59;99031.75;;;13.06;81.85
46394;BME280;32099;53.588;10.176;2022-09-27T14:05:31;99032.13;;;13.09;81.28
46394;BME280;32099;53.588;10.176;2022-09-27T14:08:00;99044.16;;;13.08;81.84
46394;BME280;32099;53.588;10.176;2022-09-27T14:10:27;99042.00;;;13.10;81.55
46394;BME280;32099;53.588;10.176;2022-09-27T14:12:54;99035.09;;;13.08;80.60
46394;BME280;32099;53.588;10.176;2022-09-27T14:15:25;99029.63;;;13.08;81.03
46394;BME280;32099;53.588;10.176;2022-09-27T14:17:53;99031.88;;;13.11;81.65
46394;BME280;32099;53.588;10.176;2022-09-27T14:20:31;99033.22;;;13.08;80.02
46394;BME280;32099;53.588;10.176;2022-09-27T14:22:57;99029.63;;;13.08;81.16
46394;BME280;32099;53.588;10.176;2022-09-27T14:25:24;99028.06;;;13.12;81.64
46394;BME280;32099;53.588;10.176;2022-09-27T14:27:49;99031.88;;;13.11;81.87
46394;BME280;32099;53.588;10.176;2022-09-27T14:30:16;99032.47;;;13.13;82.43
46394;BME280;32099;53.588;10.176;2022-09-27T14:32:51;99042.84;;;13.11;80.64
46394;BME280;32099;53.588;10.176;2022-09-27T14:35:23;99046.06;;;12.96;80.80
46394;BME280;32099;53.588;10.176;2022-09-27T14:38:11;99061.06;;;12.81;80.88
46394;BME280;32099;53.588;10.176;2022-09-27T14:40:43;99061.22;;;12.63;81.72
46394;BME280;32099;53.588;10.176;2022-09-27T14:43:21;99067.97;;;12.48;82.60
46394;BME280;32099;53.588;10.176;2022-09-27T14:45:47;99064.03;;;12.44;83.91
46394;BME280;32099;53.588;10.176;2022-09-27T14:48:26;99068.31;;;12.40;84.19
46394;BME280;32099;53.588;10.176;2022-09-27T14:50:55;99072.34;;;12.38;85.16
46394;BME280;32099;53.588;10.176;2022-09-27T14:53:28;99077.47;;;12.34;84.24
46394;BME280;32099;53.588;10.176;2022-09-27T14:55:55;99079.94;;;12.24;85.13